Amboy, IL (61310)

6:28 PM CST on February 05, 2016 (GMT -0600)
Lee Co EMA Amboy Site | | Change Station
CLOSE
Current Station
Personal Weather Station
Location: Amboy, IL
Elevation: 765 ft
Nearby Weather Stations

Elev 765 ft 41.71 °N, 89.32 °W | Updated 34 seconds ago

Overcast
Overcast
29.2 °F
Feels Like 25 °F
N
4.0
Wind Variable Wind from WSW
Gusts 22.0 mph

Today
High -- | Low -- °F
--% Chance of Precip.
Yesterday
High -- | Low -- °F
Precip. -- in
Pressure 30.33 in
Visibility 10.0 miles
Clouds Clear
Windchill 25 °F
Dew Point 24 °F
Humidity 79%
Rainfall 0.00 in
Snow Depth Not available.
7:05 AM 5:17 PM
Waning Crescent, 8% visible
METAR KSQI 060015Z 00000KT 10SM CLR M01/M06 A3033 RMK AO1
Pressure 30.33 in
Visibility 10.0 miles
Clouds Clear
Windchill 25 °F
Dew Point 24 °F
Humidity 79%
Rainfall 0.00 in
Snow Depth Not available.
7:05 AM 5:17 PM
Waning Crescent, 8% visible
METAR KSQI 060015Z 00000KT 10SM CLR M01/M06 A3033 RMK AO1

10-Day Weather Forecast

Almanac

Astronomy

Feb. 05, 2016 Rise Set
Actual Time
Civil Twilight
Nautical Twilight
Astronomical Twilight
Moon
Length of Visible Light
Length of Day
Tomorrow will be .
, % of the Moon is Illuminated

Today's Extremes

State Highs State Lows

Community

WunderPhotos

Upload Photos

1,890,897 photos uploaded!

WunderBlog® & News

Nearby

Air Quality

  Air Quality AQ Index Pollutant
Not available.

Snow Depth

Station Depth Elevation

Earthquake Activity

City Distance Mag. Time & Date
Minimum magnitude displayed is 2.5.

Coastal Water Temperatures

Place Temperature

Stations

Nearby Weather Stations

Station Location Temp. Windchill Dew Point Humidity Wind Precip. Elev Updated Type
                   

Watches & Warnings

There are currently no watches in effect.